Time;durP1;ratioP1;P1;durP2;ratioP2;P2;SDS_P1;SDS_P2;PMS_P1;PMS_P2;Temp;Humidity;BMP_temperature;BMP_pressure;BME280_temperature;BME280_humidity;BME280_pressure;Samples;Min_cycle;Max_cycle;Signal;HPM_P1;HPM_P2
2022/10/15 00:01:48;;;;;;;6.53;2.67;;;15.10;75.70;;;;;;5017370;28;20227;-78
2022/10/15 00:04:16;;;;;;;9.33;3.20;;;15.10;75.80;;;;;;5011511;28;20223;-75
2022/10/15 00:06:44;;;;;;;9.33;2.60;;;15.00;76.50;;;;;;5028717;28;20191;-77
2022/10/15 00:09:13;;;;;;;8.60;2.93;;;15.00;75.60;;;;;;5019277;28;20189;-76
2022/10/15 00:11:41;;;;;;;6.50;2.80;;;15.00;75.80;;;;;;5025753;28;20200;-76
2022/10/15 00:14:10;;;;;;;10.90;2.73;;;14.90;75.70;;;;;;5028476;28;20231;-76
2022/10/15 00:16:39;;;;;;;6.90;2.87;;;14.90;75.80;;;;;;5011942;28;20197;-76
2022/10/15 00:19:07;;;;;;;6.47;2.53;;;14.90;75.90;;;;;;5025029;28;20301;-77
2022/10/15 00:21:36;;;;;;;5.73;2.80;;;14.80;75.90;;;;;;5022819;28;20829;-76
2022/10/15 00:24:05;;;;;;;8.70;2.70;;;14.80;75.90;;;;;;5024506;28;20285;-75
2022/10/15 00:26:33;;;;;;;8.53;2.63;;;14.80;76.10;;;;;;5020650;28;20224;-79
2022/10/15 00:29:03;;;;;;;8.33;3.20;;;14.70;76.20;;;;;;5015108;28;20220;-76
2022/10/15 00:31:32;;;;;;;7.13;2.70;;;14.70;76.30;;;;;;5023057;28;20245;-76
2022/10/15 00:34:02;;;;;;;4.43;2.63;;;14.60;76.40;;;;;;5009910;28;20285;-76
2022/10/15 00:36:32;;;;;;;6.90;2.97;;;14.60;76.50;;;;;;5018053;28;20246;-75
2022/10/15 00:39:01;;;;;;;7.60;2.87;;;14.60;76.50;;;;;;5020919;28;20274;-75
2022/10/15 00:41:32;;;;;;;8.03;2.40;;;14.50;76.60;;;;;;5021302;28;20195;-76
2022/10/15 00:44:02;;;;;;;5.73;2.80;;;14.50;76.70;;;;;;5026452;28;20216;-76
2022/10/15 00:46:35;;;;;;;8.37;2.87;;;14.50;76.90;;;;;;5018814;28;20231;-75
2022/10/15 00:49:11;;;;;;;9.43;2.67;;;14.40;76.90;;;;;;5021791;28;20845;-76
2022/10/15 00:51:43;;;;;;;6.93;2.87;;;14.40;77.10;;;;;;5025474;28;20257;-76
2022/10/15 00:54:12;;;;;;;7.80;3.60;;;14.40;77.10;;;;;;5017141;28;21755;-77
2022/10/15 00:56:43;;;;;;;5.63;2.70;;;14.30;77.20;;;;;;5018468;28;20641;-78
2022/10/15 00:59:14;;;;;;;6.30;2.60;;;14.30;77.30;;;;;;5014364;28;21656;-76
2022/10/15 01:01:44;;;;;;;10.17;2.90;;;14.30;77.30;;;;;;5014235;28;20274;-76
2022/10/15 01:04:13;;;;;;;10.60;3.10;;;14.30;77.30;;;;;;5015900;28;20695;-76
2022/10/15 01:06:41;;;;;;;7.07;2.90;;;14.30;77.30;;;;;;5018854;28;20241;-76
2022/10/15 01:09:09;;;;;;;8.17;3.20;;;14.20;77.30;;;;;;5023351;28;20201;-76
2022/10/15 01:11:42;;;;;;;6.30;3.30;;;14.20;77.40;;;;;;5020406;28;20593;-75
2022/10/15 01:14:22;;;;;;;7.70;2.67;;;14.20;77.50;;;;;;5019323;28;20239;-75
2022/10/15 01:16:58;;;;;;;5.90;2.40;;;14.20;77.50;;;;;;5010763;28;20223;-76
2022/10/15 01:19:41;;;;;;;4.50;2.47;;;14.10;77.40;;;;;;5021410;28;20722;-76
2022/10/15 01:22:16;;;;;;;7.33;2.87;;;14.10;77.50;;;;;;5016162;28;20618;-77
2022/10/15 01:24:53;;;;;;;8.87;2.90;;;14.10;77.60;;;;;;5024649;28;20232;-77
2022/10/15 01:27:31;;;;;;;6.40;2.03;;;14.10;77.60;;;;;;5018264;28;20608;-77
2022/10/15 01:30:18;;;;;;;8.93;3.00;;;14.00;77.60;;;;;;5022583;28;20286;-77
2022/10/15 01:33:02;;;;;;;7.33;2.50;;;14.00;77.60;;;;;;5018155;28;20194;-76
2022/10/15 01:35:42;;;;;;;8.00;2.97;;;14.00;77.60;;;;;;5016211;28;20350;-76
2022/10/15 01:38:19;;;;;;;6.67;2.90;;;14.00;77.70;;;;;;5023176;28;20855;-78
2022/10/15 01:40:53;;;;;;;5.97;2.77;;;14.00;77.80;;;;;;5010890;28;20291;-76
2022/10/15 01:43:27;;;;;;;5.03;2.90;;;13.90;77.70;;;;;;5014741;28;20669;-77
2022/10/15 01:46:02;;;;;;;6.83;3.13;;;13.90;77.80;;;;;;5021192;28;20231;-76
2022/10/15 01:48:32;;;;;;;6.33;2.90;;;13.90;77.70;;;;;;5019777;28;20274;-77
2022/10/15 01:51:04;;;;;;;5.47;2.63;;;13.90;77.90;;;;;;5023858;28;20275;-77
2022/10/15 01:53:34;;;;;;;6.43;2.77;;;13.90;77.90;;;;;;5022394;28;20251;-76
2022/10/15 01:56:08;;;;;;;6.63;2.83;;;13.90;77.90;;;;;;5019247;28;20190;-76
2022/10/15 01:58:38;;;;;;;7.53;2.50;;;13.80;77.90;;;;;;5012269;28;20220;-77
2022/10/15 02:01:08;;;;;;;4.63;2.33;;;13.80;77.90;;;;;;5019073;28;20315;-76
2022/10/15 02:03:47;;;;;;;6.17;3.27;;;13.80;77.90;;;;;;5028921;28;20191;-76
2022/10/15 02:06:21;;;;;;;5.50;2.90;;;13.80;78.00;;;;;;5032697;28;20223;-77
2022/10/15 02:09:02;;;;;;;7.60;3.10;;;13.80;78.00;;;;;;5022260;28;20224;-76
2022/10/15 02:11:43;;;;;;;5.30;2.80;;;13.80;78.00;;;;;;5030373;28;20735;-77
2022/10/15 02:14:19;;;;;;;5.90;2.97;;;13.80;78.00;;;;;;5026469;28;20192;-75
2022/10/15 02:16:58;;;;;;;7.03;3.17;;;13.70;78.10;;;;;;5025037;28;20246;-76
2022/10/15 02:19:33;;;;;;;6.07;2.67;;;13.70;78.10;;;;;;5014866;28;20278;-76
2022/10/15 02:22:07;;;;;;;5.13;2.67;;;13.70;78.20;;;;;;5030751;28;20223;-76
2022/10/15 02:24:40;;;;;;;9.77;2.70;;;13.70;78.20;;;;;;5025577;28;20654;-76
2022/10/15 02:27:10;;;;;;;7.97;2.87;;;13.70;78.30;;;;;;5020918;28;20189;-77
2022/10/15 02:29:41;;;;;;;7.00;3.00;;;13.60;78.20;;;;;;5023802;28;20590;-76
2022/10/15 02:32:12;;;;;;;5.13;2.90;;;13.60;78.20;;;;;;5023725;28;20280;-76
2022/10/15 02:34:41;;;;;;;5.67;2.70;;;13.70;78.30;;;;;;5021392;28;20232;-77
2022/10/15 02:37:09;;;;;;;5.73;3.17;;;13.60;78.30;;;;;;5022651;28;20227;-77
2022/10/15 02:39:38;;;;;;;5.63;3.23;;;13.60;78.40;;;;;;5023036;28;20339;-76
2022/10/15 02:42:06;;;;;;;8.87;2.93;;;13.60;78.30;;;;;;5028838;28;20231;-77
2022/10/15 02:44:34;;;;;;;7.10;2.83;;;13.60;78.30;;;;;;5030912;28;20219;-77
2022/10/15 02:47:03;;;;;;;10.43;3.30;;;13.60;78.30;;;;;;5027583;28;20227;-76
2022/10/15 02:49:36;;;;;;;4.90;3.07;;;13.50;78.30;;;;;;5014762;28;20568;-77
2022/10/15 02:52:04;;;;;;;6.77;2.87;;;13.50;78.50;;;;;;5024887;28;20273;-76
2022/10/15 02:54:32;;;;;;;5.80;2.80;;;13.50;78.50;;;;;;5021973;28;20282;-78
2022/10/15 02:57:01;;;;;;;6.23;2.73;;;13.50;78.40;;;;;;5024725;28;20200;-76
2022/10/15 02:59:29;;;;;;;4.60;2.80;;;13.50;78.50;;;;;;5022006;28;20230;-75
2022/10/15 03:01:57;;;;;;;7.83;3.33;;;13.40;79.20;;;;;;5020260;28;20585;-76
2022/10/15 03:04:25;;;;;;;6.13;3.00;;;13.40;78.40;;;;;;5018232;28;20224;-75
2022/10/15 03:06:55;;;;;;;6.87;3.00;;;13.40;78.60;;;;;;5026769;28;20227;-77
2022/10/15 03:09:23;;;;;;;5.87;2.73;;;13.40;78.50;;;;;;5016933;28;20674;-78
2022/10/15 03:11:52;;;;;;;7.50;3.17;;;13.30;78.50;;;;;;5020297;28;20211;-77
2022/10/15 03:14:20;;;;;;;6.50;3.43;;;13.30;78.60;;;;;;5021228;28;20667;-78
2022/10/15 03:16:48;;;;;;;6.73;3.20;;;13.30;78.60;;;;;;5021143;28;20203;-77
2022/10/15 03:19:16;;;;;;;5.67;3.33;;;13.30;78.70;;;;;;5025582;28;20200;-77
2022/10/15 03:21:45;;;;;;;5.90;2.93;;;13.30;78.70;;;;;;5017130;28;20248;-79
2022/10/15 03:24:17;;;;;;;5.60;2.83;;;13.30;78.70;;;;;;5017632;28;20202;-77
2022/10/15 03:26:45;;;;;;;5.03;2.70;;;13.20;78.60;;;;;;5033726;28;20223;-76
2022/10/15 03:29:14;;;;;;;8.03;3.43;;;13.30;78.70;;;;;;5033000;28;20227;-76
2022/10/15 03:31:42;;;;;;;4.17;2.33;;;13.30;78.70;;;;;;5021508;28;20258;-76
2022/10/15 03:34:10;;;;;;;5.43;3.17;;;13.20;78.70;;;;;;5019694;28;20215;-76
2022/10/15 03:36:39;;;;;;;8.27;3.20;;;13.20;78.80;;;;;;5021110;28;21332;-74
2022/10/15 03:39:07;;;;;;;5.70;3.43;;;13.20;78.80;;;;;;5021651;28;20247;-77
2022/10/15 03:41:37;;;;;;;9.10;3.37;;;13.20;78.80;;;;;;5017613;28;20319;-77
2022/10/15 03:44:07;;;;;;;7.17;3.43;;;13.20;78.80;;;;;;5020786;28;20206;-76
2022/10/15 03:46:35;;;;;;;9.37;3.27;;;13.20;79.00;;;;;;5021256;28;20274;-77
2022/10/15 03:49:03;;;;;;;4.70;2.80;;;13.10;78.80;;;;;;5024427;28;20196;-76
2022/10/15 03:51:32;;;;;;;6.07;3.27;;;13.20;79.00;;;;;;5019177;28;20307;-76
2022/10/15 03:54:00;;;;;;;7.30;3.27;;;13.20;79.00;;;;;;5018476;28;20230;-77
2022/10/15 03:56:28;;;;;;;7.40;3.07;;;13.10;79.00;;;;;;5019332;28;20221;-76
2022/10/15 03:58:58;;;;;;;8.03;3.27;;;13.10;79.00;;;;;;5028338;28;20189;-76
2022/10/15 04:01:26;;;;;;;5.80;3.33;;;13.10;79.00;;;;;;5021240;28;20319;-77
2022/10/15 04:03:55;;;;;;;6.70;3.27;;;13.10;79.00;;;;;;5018369;28;20203;-75
2022/10/15 04:06:23;;;;;;;7.77;3.20;;;13.10;79.00;;;;;;5032890;28;20235;-77
2022/10/15 04:08:51;;;;;;;6.63;3.13;;;13.10;78.90;;;;;;5022066;28;20227;-75
2022/10/15 04:11:24;;;;;;;9.93;3.10;;;13.10;79.00;;;;;;5016612;28;20284;-77
2022/10/15 04:13:53;;;;;;;8.80;3.37;;;13.10;78.90;;;;;;5011578;28;20203;-76
2022/10/15 04:16:22;;;;;;;7.50;3.03;;;13.10;78.90;;;;;;5010599;28;20287;-76
2022/10/15 04:18:51;;;;;;;5.40;2.93;;;13.00;78.80;;;;;;5016290;28;20221;-74
2022/10/15 04:21:20;;;;;;;6.97;2.93;;;13.00;78.90;;;;;;5022957;28;20262;-77
2022/10/15 04:23:48;;;;;;;5.57;2.93;;;13.00;78.90;;;;;;5028142;28;20210;-76
2022/10/15 04:26:17;;;;;;;8.13;3.17;;;13.00;78.80;;;;;;5026456;28;20611;-75
2022/10/15 04:28:47;;;;;;;6.40;2.57;;;13.00;78.80;;;;;;5019802;28;20729;-75
2022/10/15 04:31:15;;;;;;;9.17;3.30;;;13.00;78.90;;;;;;5012583;28;20245;-77
2022/10/15 04:33:48;;;;;;;9.80;3.47;;;13.00;79.00;;;;;;5008845;28;20255;-76
2022/10/15 04:36:16;;;;;;;8.53;3.33;;;12.90;79.00;;;;;;5024310;28;20315;-76
2022/10/15 04:38:50;;;;;;;11.20;3.83;;;12.90;79.10;;;;;;5027566;28;20230;-76
2022/10/15 04:41:18;;;;;;;6.27;3.73;;;12.90;79.20;;;;;;5015574;28;20259;-76
2022/10/15 04:43:46;;;;;;;7.77;3.47;;;12.90;79.10;;;;;;5017856;28;20265;-76
2022/10/15 04:46:14;;;;;;;6.40;3.53;;;12.90;80.00;;;;;;5015197;28;20232;-74
2022/10/15 04:48:43;;;;;;;6.67;3.57;;;12.90;80.00;;;;;;5015471;28;20227;-76
2022/10/15 04:51:15;;;;;;;5.43;3.60;;;12.90;79.30;;;;;;5024399;28;20219;-75
2022/10/15 04:53:43;;;;;;;8.33;4.03;;;12.90;79.40;;;;;;5012575;28;20224;-77
2022/10/15 04:56:14;;;;;;;11.03;3.90;;;12.90;79.20;;;;;;5018797;28;20808;-77
2022/10/15 04:58:44;;;;;;;7.93;4.17;;;12.90;79.30;;;;;;5021943;28;20249;-76
2022/10/15 05:01:14;;;;;;;8.00;3.80;;;12.90;79.20;;;;;;5016302;28;20294;-76
2022/10/15 05:03:44;;;;;;;11.47;4.20;;;12.90;79.20;;;;;;5025361;28;20227;-76
2022/10/15 05:06:15;;;;;;;8.03;3.83;;;12.90;79.30;;;;;;5021806;28;20192;-77
2022/10/15 05:08:44;;;;;;;12.20;4.33;;;12.90;79.30;;;;;;5014709;28;20656;-75
2022/10/15 05:11:15;;;;;;;11.93;4.50;;;12.90;79.40;;;;;;5027144;28;20281;-75
2022/10/15 05:13:43;;;;;;;12.47;4.53;;;13.00;79.40;;;;;;5015536;28;20253;-77
2022/10/15 05:16:14;;;;;;;10.63;3.93;;;12.90;79.40;;;;;;5022870;28;20213;-76
2022/10/15 05:18:44;;;;;;;10.80;4.50;;;13.00;79.40;;;;;;5013900;28;20227;-76
2022/10/15 05:21:15;;;;;;;10.50;4.00;;;13.00;79.40;;;;;;5024288;28;20255;-76
2022/10/15 05:23:44;;;;;;;11.83;4.63;;;13.00;79.40;;;;;;5021778;28;20234;-77
2022/10/15 05:26:15;;;;;;;10.93;4.50;;;13.00;79.50;;;;;;5016240;28;20251;-76
2022/10/15 05:28:43;;;;;;;6.10;4.13;;;13.10;79.40;;;;;;5024731;28;20250;-78
2022/10/15 05:31:13;;;;;;;11.70;4.47;;;13.10;79.30;;;;;;5016863;28;21597;-75
2022/10/15 05:33:46;;;;;;;7.20;4.30;;;13.10;79.30;;;;;;5029953;28;20248;-76
2022/10/15 05:36:18;;;;;;;11.10;5.07;;;13.20;79.30;;;;;;5017739;28;20329;-77
2022/10/15 05:38:47;;;;;;;11.43;5.00;;;13.20;79.40;;;;;;5022143;28;20187;-77
2022/10/15 05:41:16;;;;;;;12.13;5.13;;;13.20;79.40;;;;;;5010713;28;20244;-77
2022/10/15 05:43:46;;;;;;;10.57;4.70;;;13.20;79.40;;;;;;5021521;28;20234;-77
2022/10/15 05:46:15;;;;;;;9.13;4.40;;;13.30;79.50;;;;;;5026578;28;20223;-77
2022/10/15 05:48:44;;;;;;;13.23;5.77;;;13.30;79.50;;;;;;5033980;28;20598;-77
2022/10/15 05:51:13;;;;;;;10.63;5.30;;;13.30;79.40;;;;;;5023418;28;20207;-78
2022/10/15 05:53:45;;;;;;;11.50;5.10;;;13.40;79.30;;;;;;5021726;28;20206;-76
2022/10/15 05:56:13;;;;;;;11.37;5.50;;;13.50;79.40;;;;;;5032905;28;20557;-77
2022/10/15 05:58:42;;;;;;;12.97;6.33;;;13.50;79.30;;;;;;5020328;28;20720;-76
2022/10/15 06:01:11;;;;;;;13.10;6.03;;;13.60;79.30;;;;;;5032297;28;20279;-77
2022/10/15 06:03:41;;;;;;;13.57;5.87;;;13.60;79.20;;;;;;5020866;28;20208;-77
2022/10/15 06:06:17;;;;;;;12.67;6.00;;;13.60;79.00;;;;;;5029868;28;20676;-77
2022/10/15 06:08:47;;;;;;;9.63;5.23;;;13.70;79.00;;;;;;5027572;28;20237;-77
2022/10/15 06:11:16;;;;;;;8.83;4.30;;;13.80;79.10;;;;;;5022602;28;20220;-77
2022/10/15 06:13:45;;;;;;;10.67;4.43;;;13.80;78.60;;;;;;5022154;28;20188;-78
2022/10/15 06:16:16;;;;;;;15.97;7.20;;;13.90;78.30;;;;;;5021582;28;20215;-78
2022/10/15 06:18:52;;;;;;;12.10;5.43;;;14.00;78.50;;;;;;5017770;28;20726;-76
2022/10/15 06:21:21;;;;;;;7.53;3.87;;;14.10;78.20;;;;;;5028007;28;20204;-78
2022/10/15 06:23:50;;;;;;;10.07;3.00;;;14.20;77.70;;;;;;5028729;28;22413;-76
2022/10/15 06:26:19;;;;;;;6.47;3.93;;;14.30;77.50;;;;;;5023903;28;20211;-77
2022/10/15 06:28:47;;;;;;;10.07;3.20;;;14.40;77.20;;;;;;5020567;28;20193;-77
2022/10/15 06:31:15;;;;;;;5.70;2.77;;;14.50;77.20;;;;;;5030585;28;20606;-78
2022/10/15 06:33:44;;;;;;;3.80;2.80;;;14.60;77.20;;;;;;5027619;28;20200;-76
2022/10/15 06:36:13;;;;;;;7.27;3.53;;;14.60;76.00;;;;;;5002877;28;20308;-75
2022/10/15 06:38:43;;;;;;;4.83;2.30;;;14.70;75.70;;;;;;4979010;28;20670;-78
2022/10/15 06:41:13;;;;;;;9.17;3.10;;;14.70;73.60;;;;;;4986445;28;20224;-78
2022/10/15 06:43:42;;;;;;;7.47;2.60;;;14.80;74.30;;;;;;4979989;28;20280;-77
2022/10/15 06:46:10;;;;;;;5.33;2.23;;;14.90;73.40;;;;;;4988392;28;20289;-76
2022/10/15 06:48:38;;;;;;;5.77;2.87;;;14.90;73.30;;;;;;4976073;28;20228;-79
2022/10/15 06:51:16;;;;;;;5.50;2.50;;;15.00;72.80;;;;;;4980962;28;20651;-77
2022/10/15 06:53:45;;;;;;;9.33;3.17;;;15.10;73.00;;;;;;4986948;28;20193;-78
2022/10/15 06:56:14;;;;;;;6.70;2.77;;;15.20;73.10;;;;;;4990944;28;20197;-77
2022/10/15 06:58:43;;;;;;;4.93;2.60;;;15.20;72.60;;;;;;4986047;28;20694;-78
2022/10/15 07:01:11;;;;;;;7.60;2.10;;;15.30;72.60;;;;;;4980982;28;20682;-78
2022/10/15 07:03:40;;;;;;;4.37;2.30;;;15.50;72.60;;;;;;4989002;28;20220;-77
2022/10/15 07:06:09;;;;;;;10.77;2.97;;;15.50;72.10;;;;;;4987584;28;20220;-79
2022/10/15 07:08:37;;;;;;;9.47;3.30;;;15.60;71.40;;;;;;4983408;28;20208;-79
2022/10/15 07:11:08;;;;;;;6.13;3.13;;;15.60;70.40;;;;;;4984407;28;20236;-82
2022/10/15 07:13:38;;;;;;;5.43;2.77;;;15.60;70.50;;;;;;4988800;28;20579;-79
2022/10/15 07:16:07;;;;;;;7.13;2.47;;;15.70;70.50;;;;;;4983880;28;20225;-77
2022/10/15 07:18:36;;;;;;;8.77;2.50;;;15.80;70.80;;;;;;4976074;28;20232;-76
2022/10/15 07:21:06;;;;;;;5.90;2.47;;;15.90;71.20;;;;;;4983358;28;20197;-79
2022/10/15 07:23:35;;;;;;;7.57;2.30;;;16.00;71.00;;;;;;4985940;28;20212;-78
2022/10/15 07:26:03;;;;;;;5.17;1.80;;;16.10;70.50;;;;;;4990404;28;20197;-76
2022/10/15 07:28:32;;;;;;;4.13;2.07;;;16.10;71.00;;;;;;4974993;28;20228;-78
2022/10/15 07:31:02;;;;;;;4.57;2.50;;;16.20;70.50;;;;;;4980201;28;20204;-78
2022/10/15 07:33:33;;;;;;;4.77;1.67;;;16.30;70.20;;;;;;4982262;28;20198;-78
2022/10/15 07:36:03;;;;;;;5.10;1.73;;;16.40;70.30;;;;;;4979380;28;20221;-78
2022/10/15 07:38:32;;;;;;;5.63;1.50;;;16.40;69.90;;;;;;4976851;28;20296;-80
2022/10/15 07:41:01;;;;;;;6.87;2.20;;;16.50;69.40;;;;;;4980382;28;20249;-80
2022/10/15 07:43:29;;;;;;;3.83;1.70;;;16.60;69.30;;;;;;4982104;28;20225;-80
2022/10/15 07:45:57;;;;;;;5.57;1.63;;;16.60;68.30;;;;;;4985084;28;20193;-78
2022/10/15 07:48:27;;;;;;;5.60;1.90;;;16.70;68.60;;;;;;4976589;28;20222;-78
2022/10/15 07:50:56;;;;;;;5.77;2.10;;;16.80;68.60;;;;;;4976692;28;20228;-80
2022/10/15 07:53:24;;;;;;;5.80;2.03;;;16.80;68.00;;;;;;4988070;28;20642;-79
2022/10/15 07:55:53;;;;;;;5.83;2.30;;;16.90;67.80;;;;;;4986446;28;20201;-79
2022/10/15 07:58:21;;;;;;;6.87;2.40;;;16.90;68.00;;;;;;4991229;28;20205;-78
2022/10/15 08:00:49;;;;;;;7.10;2.13;;;17.00;68.10;;;;;;4980060;28;20281;-79
2022/10/15 08:03:18;;;;;;;8.87;2.60;;;17.00;68.00;;;;;;4984332;28;20225;-80
2022/10/15 08:05:51;;;;;;;5.77;2.30;;;17.00;67.80;;;;;;4987268;28;20217;-79
2022/10/15 08:08:20;;;;;;;4.20;1.83;;;17.00;67.80;;;;;;4981899;28;20197;-78
2022/10/15 08:10:48;;;;;;;4.93;2.40;;;17.10;67.70;;;;;;4987992;28;20208;-77
2022/10/15 08:13:17;;;;;;;3.23;1.63;;;17.10;67.50;;;;;;4987644;28;20220;-78
2022/10/15 08:15:45;;;;;;;3.83;2.20;;;17.20;67.80;;;;;;4989784;28;20197;-77
2022/10/15 08:18:14;;;;;;;3.10;2.03;;;17.30;67.70;;;;;;4977600;28;20197;-78
2022/10/15 08:20:42;;;;;;;3.83;1.83;;;17.30;68.10;;;;;;4975191;28;20735;-78
2022/10/15 08:23:16;;;;;;;3.53;2.10;;;17.40;66.80;;;;;;4978112;28;20217;-77
2022/10/15 08:25:44;;;;;;;3.93;1.63;;;17.30;66.40;;;;;;4982631;28;20196;-79
2022/10/15 08:28:13;;;;;;;13.17;2.40;;;17.40;66.90;;;;;;4981834;28;20202;-78
2022/10/15 08:30:41;;;;;;;5.63;2.20;;;17.50;67.20;;;;;;4976727;28;20563;-78
2022/10/15 08:33:09;;;;;;;10.37;2.07;;;17.60;66.90;;;;;;4983016;28;20193;-77
2022/10/15 08:35:42;;;;;;;8.33;2.20;;;17.60;66.10;;;;;;4979109;28;20229;-76
2022/10/15 08:38:21;;;;;;;8.13;2.10;;;17.70;66.40;;;;;;4980978;28;20185;-80
2022/10/15 08:40:53;;;;;;;8.63;2.43;;;17.70;66.40;;;;;;4979291;28;20231;-80
2022/10/15 08:43:25;;;;;;;5.90;2.07;;;17.80;66.30;;;;;;4980251;28;20256;-77
2022/10/15 08:45:58;;;;;;;6.90;1.93;;;17.80;65.90;;;;;;4982306;28;20245;-80
2022/10/15 08:48:30;;;;;;;6.47;2.30;;;17.90;66.00;;;;;;4978615;28;20602;-83
2022/10/15 08:51:04;;;;;;;8.80;1.80;;;18.00;66.10;;;;;;4976178;28;20737;-79
2022/10/15 08:53:39;;;;;;;12.13;2.67;;;18.10;65.80;;;;;;4976029;28;20193;-79
2022/10/15 08:56:15;;;;;;;5.33;2.07;;;18.10;64.10;;;;;;4990816;28;20200;-78
2022/10/15 08:58:51;;;;;;;3.93;1.70;;;18.10;63.90;;;;;;4978886;28;20788;-79
2022/10/15 09:01:28;;;;;;;6.90;2.07;;;18.20;64.10;;;;;;4980570;28;20189;-81
2022/10/15 09:04:07;;;;;;;7.37;1.90;;;18.20;64.10;;;;;;4981615;28;20225;-79
2022/10/15 09:06:37;;;;;;;3.67;2.17;;;18.30;64.30;;;;;;4981284;28;20201;-79
2022/10/15 09:09:17;;;;;;;5.47;2.03;;;18.30;63.40;;;;;;4983631;28;20639;-79
2022/10/15 09:11:57;;;;;;;5.47;2.30;;;18.30;63.10;;;;;;4989116;28;20221;-76
2022/10/15 09:14:30;;;;;;;4.73;2.10;;;18.40;63.60;;;;;;4997178;28;20201;-80
2022/10/15 09:17:03;;;;;;;3.10;1.43;;;18.40;64.50;;;;;;4982728;28;20611;-81
2022/10/15 09:19:35;;;;;;;5.77;2.03;;;18.40;63.30;;;;;;4990042;28;20196;-80
2022/10/15 09:22:03;;;;;;;5.23;2.23;;;18.50;63.70;;;;;;4985730;28;20292;-81
2022/10/15 09:24:34;;;;;;;6.60;2.50;;;18.60;64.10;;;;;;4993347;28;20256;-82
2022/10/15 09:27:07;;;;;;;8.23;2.30;;;18.60;64.20;;;;;;4988623;28;20197;-81
2022/10/15 09:29:44;;;;;;;6.50;2.47;;;18.70;64.50;;;;;;4996851;28;20193;-82
2022/10/15 09:32:19;;;;;;;7.43;2.90;;;18.70;63.10;;;;;;4998366;28;20650;-79
2022/10/15 09:34:55;;;;;;;6.70;3.43;;;18.80;63.20;;;;;;4982809;28;20201;-80
2022/10/15 09:37:29;;;;;;;8.10;3.20;;;18.80;63.50;;;;;;4990809;28;20220;-78
2022/10/15 09:40:14;;;;;;;5.10;2.43;;;18.90;63.70;;;;;;4994542;28;20607;-79
2022/10/15 09:42:44;;;;;;;9.37;3.00;;;18.90;63.60;;;;;;4985569;28;20555;-80
2022/10/15 09:45:15;;;;;;;8.17;2.87;;;19.00;63.50;;;;;;4988415;28;20252;-81
2022/10/15 09:47:44;;;;;;;6.77;2.77;;;19.10;63.20;;;;;;4985822;28;20229;-79
2022/10/15 09:50:14;;;;;;;5.50;2.77;;;19.10;63.10;;;;;;4995609;28;20204;-79
2022/10/15 09:52:55;;;;;;;7.63;2.83;;;19.10;62.50;;;;;;4996228;28;20259;-81
2022/10/15 09:55:41;;;;;;;12.07;2.70;;;19.10;62.50;;;;;;4982521;28;20240;-76
2022/10/15 09:58:14;;;;;;;5.60;2.97;;;19.10;62.40;;;;;;4978031;28;20235;-80
2022/10/15 10:00:58;;;;;;;8.27;2.47;;;19.20;62.30;;;;;;4987928;28;20448;-81
2022/10/15 10:03:29;;;;;;;5.57;2.70;;;19.20;62.50;;;;;;4990063;28;20603;-80
2022/10/15 10:06:03;;;;;;;6.93;2.77;;;19.30;62.50;;;;;;4990178;28;20224;-79
2022/10/15 10:08:37;;;;;;;5.77;2.93;;;19.30;61.90;;;;;;4984007;28;20655;-79
2022/10/15 10:11:10;;;;;;;5.90;3.00;;;19.40;62.00;;;;;;4981634;28;20956;-80
2022/10/15 10:13:42;;;;;;;7.37;3.00;;;19.40;61.70;;;;;;4985831;28;20197;-77
2022/10/15 10:16:12;;;;;;;6.93;3.20;;;19.40;60.90;;;;;;4987497;28;20217;-77
2022/10/15 10:18:49;;;;;;;8.50;3.13;;;19.40;61.20;;;;;;4989715;28;20247;-79
2022/10/15 10:21:26;;;;;;;5.83;2.80;;;19.50;61.30;;;;;;4983750;28;20195;-79
2022/10/15 10:23:54;;;;;;;6.33;3.03;;;19.50;60.80;;;;;;4994485;28;20279;-83
2022/10/15 10:26:24;;;;;;;7.53;3.30;;;19.50;60.30;;;;;;4987365;28;20202;-81
2022/10/15 10:28:55;;;;;;;5.77;3.50;;;19.50;60.50;;;;;;4991989;28;20258;-84
2022/10/15 10:31:41;;;;;;;6.83;3.43;;;19.60;61.70;;;;;;4990417;28;20197;-81
2022/10/15 10:34:15;;;;;;;5.97;3.07;;;19.70;61.20;;;;;;4987581;28;20197;-81
2022/10/15 10:36:50;;;;;;;8.07;2.67;;;19.70;61.00;;;;;;4981110;28;20255;-81
2022/10/15 10:39:26;;;;;;;5.03;2.60;;;19.70;60.00;;;;;;4989508;28;20194;-83
2022/10/15 10:41:59;;;;;;;6.37;3.37;;;19.70;60.40;;;;;;4993941;28;20242;-83
2022/10/15 10:44:29;;;;;;;5.47;2.60;;;19.80;60.30;;;;;;4992447;28;20209;-83
2022/10/15 10:47:11;;;;;;;7.17;3.00;;;19.80;60.50;;;;;;4986672;28;20248;-82
2022/10/15 10:49:41;;;;;;;10.00;2.97;;;19.80;60.00;;;;;;4986920;28;20663;-81
2022/10/15 10:52:21;;;;;;;5.17;2.93;;;19.90;60.30;;;;;;4986018;28;20229;-80
2022/10/15 10:54:59;;;;;;;7.07;2.70;;;19.90;60.20;;;;;;4988562;28;20192;-82
2022/10/15 10:57:39;;;;;;;6.53;2.57;;;19.90;60.20;;;;;;4987208;28;20193;-80
2022/10/15 11:00:12;;;;;;;5.43;2.83;;;19.90;60.10;;;;;;4986697;28;20654;-80
2022/10/15 11:02:42;;;;;;;10.20;3.17;;;20.00;59.70;;;;;;4984254;28;20712;-80
2022/10/15 11:05:11;;;;;;;8.07;3.70;;;20.00;59.50;;;;;;4992569;28;20249;-83
2022/10/15 11:07:49;;;;;;;5.87;3.17;;;20.00;59.60;;;;;;4986138;28;20656;-80
2022/10/15 11:10:22;;;;;;;6.90;2.90;;;20.00;59.70;;;;;;4988583;28;20244;-78
2022/10/15 11:13:06;;;;;;;7.80;3.33;;;20.00;59.60;;;;;;4980189;28;20243;-80
2022/10/15 11:15:49;;;;;;;11.97;2.97;;;20.10;59.70;;;;;;4988481;28;20207;-82
2022/10/15 11:18:31;;;;;;;5.50;2.80;;;20.20;58.90;;;;;;4985872;28;20197;-81
2022/10/15 11:21:11;;;;;;;4.90;3.10;;;20.10;59.00;;;;;;4975044;28;20221;-81
2022/10/15 11:23:50;;;;;;;8.57;2.70;;;20.20;59.10;;;;;;4990117;28;20641;-80
2022/10/15 11:26:32;;;;;;;14.13;3.33;;;20.20;58.90;;;;;;4979064;28;20244;-79
2022/10/15 11:29:27;;;;;;;8.02;3.08;;;20.30;59.30;;;;;;4982623;28;20229;-80
2022/10/15 11:32:10;;;;;;;9.50;3.25;;;20.30;58.10;;;;;;4991209;28;20220;-79
2022/10/15 11:35:00;;;;;;;7.50;3.05;;;20.30;58.20;;;;;;4975580;28;20267;-78
2022/10/15 11:37:40;;;;;;;5.82;3.08;;;20.20;57.70;;;;;;4984087;28;20200;-78
2022/10/15 11:40:20;;;;;;;10.52;4.68;;;20.30;58.10;;;;;;4986302;28;20889;-82
2022/10/15 11:42:56;;;;;;;7.10;3.50;;;20.30;58.20;;;;;;4992094;28;20197;-82
2022/10/15 11:45:42;;;;;;;9.80;3.25;;;20.30;58.50;;;;;;4990407;28;20239;-80
2022/10/15 11:48:15;;;;;;;8.02;3.65;;;20.40;58.60;;;;;;4980585;28;20255;-78
2022/10/15 11:50:49;;;;;;;8.90;3.63;;;20.40;58.60;;;;;;4976085;28;20197;-80
2022/10/15 11:53:37;;;;;;;7.95;2.85;;;20.40;57.60;;;;;;4983462;28;20235;-79
2022/10/15 11:56:10;;;;;;;7.28;3.58;;;20.40;57.80;;;;;;4973500;28;20219;-82
2022/10/15 11:58:42;;;;;;;12.68;3.60;;;20.40;58.10;;;;;;4980599;28;20675;-83
2022/10/15 12:01:20;;;;;;;6.63;2.60;;;20.40;58.30;;;;;;4986138;28;20192;-82
2022/10/15 12:03:53;;;;;;;6.55;3.42;;;20.40;58.10;;;;;;4977072;28;20217;-84
2022/10/15 12:06:25;;;;;;;7.07;3.33;;;20.50;58.10;;;;;;4983108;28;20212;-80
2022/10/15 12:08:55;;;;;;;6.53;3.30;;;20.50;58.40;;;;;;4977945;28;20229;-80
2022/10/15 12:11:42;;;;;;;8.38;3.50;;;20.50;58.20;;;;;;4979233;28;20205;-80
2022/10/15 12:14:18;;;;;;;9.38;3.42;;;20.60;58.10;;;;;;4982125;28;20200;-82
2022/10/15 12:16:58;;;;;;;8.98;3.00;;;20.60;58.00;;;;;;4988507;28;20307;-81
2022/10/15 12:19:34;;;;;;;4.90;2.50;;;20.60;58.00;;;;;;4973339;28;20244;-80
2022/10/15 12:22:10;;;;;;;8.38;2.95;;;20.60;58.10;;;;;;4981754;28;20192;-79
2022/10/15 12:24:53;;;;;;;5.43;2.80;;;20.60;57.90;;;;;;4980332;28;20723;-80
2022/10/15 12:27:25;;;;;;;5.55;2.65;;;20.70;58.00;;;;;;4982077;28;20667;-78
2022/10/15 12:30:13;;;;;;;7.53;3.22;;;20.70;58.10;;;;;;4983557;28;20190;-83
2022/10/15 12:32:45;;;;;;;7.28;3.13;;;20.70;57.70;;;;;;4981811;28;20221;-79
2022/10/15 12:35:23;;;;;;;8.63;2.63;;;20.70;57.70;;;;;;4985588;28;20252;-83
2022/10/15 12:37:52;;;;;;;5.20;2.15;;;20.80;58.30;;;;;;4977017;28;20197;-82
2022/10/15 12:40:53;;;;;;;11.07;2.90;;;20.80;58.30;;;;;;4973205;28;20648;-82
2022/10/15 12:43:33;;;;;;;6.07;2.45;;;20.90;57.80;;;;;;4977618;28;20208;-81
2022/10/15 12:46:04;;;;;;;12.95;2.30;;;20.90;57.30;;;;;;4976277;28;20216;-81
2022/10/15 12:48:36;;;;;;;5.68;2.70;;;21.00;58.40;;;;;;4976726;28;20202;-77
2022/10/15 12:51:33;;;;;;;4.43;2.08;;;21.10;57.00;;;;;;4982103;28;20196;-77
2022/10/15 12:54:02;;;;;;;6.00;2.13;;;21.20;57.10;;;;;;4943281;28;20572;-78
2022/10/15 12:56:40;;;;;;;7.18;2.70;;;21.30;57.20;;;;;;4973739;28;20253;-79
2022/10/15 12:59:31;;;;;;;7.18;2.15;;;21.30;56.50;;;;;;4973067;28;20205;-78
2022/10/15 13:01:59;;;;;;;6.00;2.50;;;21.30;56.00;;;;;;4976348;28;20276;-77
2022/10/15 13:04:39;;;;;;;7.53;2.67;;;21.30;55.30;;;;;;4983828;28;20557;-78
2022/10/15 13:07:14;;;;;;;4.63;2.38;;;21.40;55.60;;;;;;4984829;28;20251;-82
2022/10/15 13:09:42;;;;;;;7.38;2.85;;;21.40;55.70;;;;;;4984463;28;20228;-83
2022/10/15 13:12:23;;;;;;;5.70;2.78;;;21.30;55.70;;;;;;4983870;28;20194;-80